Time;durP1;ratioP1;P1;durP2;ratioP2;P2;SDS_P1;SDS_P2;PMS_P1;PMS_P2;Temp;Humidity;BMP_temperature;BMP_pressure;BME280_temperature;BME280_humidity;BME280_pressure;Samples;Min_cycle;Max_cycle;Signal;HPM_P1;HPM_P2
2022/03/09 00:00:46;;;;;;;9.20;7.15;;;7.60;73.50;;;;;;5001431;28;20074;-83
2022/03/09 00:03:11;;;;;;;9.10;6.93;;;7.50;73.40;;;;;;5001126;28;20049;-83
2022/03/09 00:05:37;;;;;;;9.20;6.75;;;7.50;73.50;;;;;;4978686;28;20025;-83
2022/03/09 00:08:03;;;;;;;9.60;7.20;;;7.50;73.50;;;;;;5017150;28;20025;-83
2022/03/09 00:10:29;;;;;;;8.63;6.03;;;7.50;73.50;;;;;;4998737;28;20063;-83
2022/03/09 00:12:55;;;;;;;8.20;6.40;;;7.40;73.40;;;;;;5000640;28;20385;-83
2022/03/09 00:15:21;;;;;;;9.25;7.25;;;7.40;73.40;;;;;;5006433;28;20044;-83
2022/03/09 00:17:47;;;;;;;8.73;6.40;;;7.40;73.50;;;;;;5001190;28;20033;-83
2022/03/09 00:20:13;;;;;;;8.80;6.47;;;7.40;73.50;;;;;;4980239;28;20117;-83
2022/03/09 00:22:38;;;;;;;9.20;7.15;;;7.30;73.40;;;;;;4986827;28;20045;-84
2022/03/09 00:25:05;;;;;;;8.73;6.32;;;7.30;73.40;;;;;;4994194;28;20374;-83
2022/03/09 00:27:31;;;;;;;9.50;7.35;;;7.30;73.40;;;;;;5008925;28;20041;-83
2022/03/09 00:29:57;;;;;;;9.07;6.80;;;7.20;73.30;;;;;;4998605;28;20029;-83
2022/03/09 00:32:23;;;;;;;8.25;6.28;;;7.20;73.40;;;;;;5000857;28;20036;-84
2022/03/09 00:34:49;;;;;;;9.07;6.93;;;7.20;73.40;;;;;;4998218;28;20387;-83
2022/03/09 00:37:15;;;;;;;10.10;7.43;;;7.20;73.50;;;;;;4996730;28;20030;-84
2022/03/09 00:39:41;;;;;;;10.25;7.10;;;7.10;73.40;;;;;;4992946;28;20038;-83
2022/03/09 00:42:07;;;;;;;9.20;6.38;;;7.10;73.40;;;;;;5008009;28;20084;-83
2022/03/09 00:44:32;;;;;;;9.15;6.75;;;7.10;73.40;;;;;;5000613;28;20034;-84
2022/03/09 00:46:58;;;;;;;10.73;7.38;;;7.00;73.40;;;;;;5016887;28;20072;-84
2022/03/09 00:49:24;;;;;;;9.95;6.88;;;7.00;73.40;;;;;;5014448;28;20137;-83
2022/03/09 00:51:51;;;;;;;8.80;6.90;;;7.00;73.40;;;;;;5000748;28;20025;-83
2022/03/09 00:54:16;;;;;;;9.80;7.18;;;7.00;73.40;;;;;;4999492;28;20346;-83
2022/03/09 00:56:42;;;;;;;9.63;6.95;;;6.90;73.30;;;;;;4996837;28;20026;-83
2022/03/09 00:59:08;;;;;;;9.95;6.78;;;6.90;73.40;;;;;;4982155;28;20033;-83
2022/03/09 01:01:34;;;;;;;9.20;6.47;;;6.90;73.40;;;;;;5033112;28;20032;-83
2022/03/09 01:03:59;;;;;;;8.40;6.35;;;6.80;73.40;;;;;;5009414;28;20052;-82
2022/03/09 01:06:25;;;;;;;7.80;5.88;;;6.80;73.40;;;;;;4998413;28;20026;-83
2022/03/09 01:08:51;;;;;;;8.23;6.10;;;6.80;73.50;;;;;;5016418;28;20037;-83
2022/03/09 01:11:17;;;;;;;8.27;6.05;;;6.80;73.50;;;;;;5009630;28;20120;-83
2022/03/09 01:13:43;;;;;;;8.15;6.15;;;6.70;73.50;;;;;;5013958;28;20462;-83
2022/03/09 01:16:08;;;;;;;8.70;6.30;;;6.70;73.50;;;;;;4988500;28;20090;-82
2022/03/09 01:18:34;;;;;;;7.03;5.50;;;6.70;73.50;;;;;;4996167;28;20057;-83
2022/03/09 01:21:00;;;;;;;8.55;5.90;;;6.60;73.40;;;;;;4998660;28;20046;-83
2022/03/09 01:23:26;;;;;;;7.95;5.82;;;6.60;73.50;;;;;;5011876;28;20104;-83
2022/03/09 01:25:53;;;;;;;7.28;5.38;;;6.60;73.50;;;;;;5013651;28;20166;-83
2022/03/09 01:28:19;;;;;;;8.40;5.75;;;6.50;73.50;;;;;;5006705;28;20045;-83
2022/03/09 01:30:44;;;;;;;7.72;5.90;;;6.50;73.60;;;;;;5015785;28;20124;-83
2022/03/09 01:33:10;;;;;;;7.15;5.60;;;6.50;73.50;;;;;;5011331;28;20060;-83
2022/03/09 01:35:36;;;;;;;7.88;5.75;;;6.50;73.50;;;;;;4996568;28;20022;-83
2022/03/09 01:38:02;;;;;;;7.57;5.68;;;6.50;73.50;;;;;;4994792;28;20029;-84
2022/03/09 01:40:27;;;;;;;8.30;5.88;;;6.40;73.40;;;;;;4998067;28;20034;-83
2022/03/09 01:42:53;;;;;;;7.32;5.72;;;6.40;73.40;;;;;;4993858;28;20378;-83
2022/03/09 01:45:20;;;;;;;8.35;6.00;;;6.40;73.40;;;;;;5026836;28;20026;-83
2022/03/09 01:47:47;;;;;;;7.35;5.50;;;6.30;73.40;;;;;;5031118;28;20044;-83
2022/03/09 01:50:13;;;;;;;7.80;5.57;;;6.30;73.40;;;;;;4998146;28;20041;-83
2022/03/09 01:52:43;;;;;;;7.78;5.47;;;6.30;73.40;;;;;;5012690;28;20034;-83
2022/03/09 01:55:09;;;;;;;7.53;5.40;;;6.30;73.40;;;;;;4998663;28;20013;-82
2022/03/09 01:57:35;;;;;;;7.75;5.70;;;6.30;73.30;;;;;;5015063;28;20473;-83
2022/03/09 02:00:03;;;;;;;8.57;5.60;;;6.20;73.30;;;;;;5009693;28;20030;-83
2022/03/09 02:02:32;;;;;;;7.03;4.97;;;6.20;73.30;;;;;;4991957;28;20033;-83
2022/03/09 02:04:57;;;;;;;7.25;5.20;;;6.20;73.30;;;;;;5014918;28;20025;-83
2022/03/09 02:09:41;;;;;;;8.23;5.30;;;6.10;73.30;;;;;;4981251;28;20048;-81
2022/03/09 02:10:10;;;;;;;7.85;5.28;;;6.10;73.30;;;;;;5014427;28;20038;-83
2022/03/09 02:12:37;;;;;;;8.13;6.20;;;6.10;73.30;;;;;;5014699;28;20026;-81
2022/03/09 02:15:04;;;;;;;6.68;5.20;;;6.10;73.30;;;;;;5029553;28;20108;-83
2022/03/09 02:17:29;;;;;;;7.43;5.43;;;6.00;73.30;;;;;;5004531;28;20029;-83
2022/03/09 02:19:57;;;;;;;8.35;5.72;;;6.00;73.20;;;;;;5015250;28;20036;-83
2022/03/09 02:22:38;;;;;;;7.18;5.15;;;6.00;73.30;;;;;;4982851;28;20404;-83
2022/03/09 02:25:15;;;;;;;7.70;5.47;;;6.00;73.30;;;;;;5012466;28;20034;-83
2022/03/09 02:27:42;;;;;;;7.70;5.60;;;5.90;73.20;;;;;;5015002;28;20044;-83
2022/03/09 02:30:10;;;;;;;8.27;5.63;;;5.90;73.20;;;;;;5032667;28;20033;-83
2022/03/09 02:32:45;;;;;;;7.97;5.70;;;5.90;73.20;;;;;;4998709;28;20029;-83
2022/03/09 02:35:12;;;;;;;7.75;5.30;;;5.80;73.20;;;;;;5012472;28;20038;-83
2022/03/09 02:37:39;;;;;;;8.23;5.47;;;5.80;73.20;;;;;;5031397;28;20053;-84
2022/03/09 02:40:16;;;;;;;7.50;5.38;;;5.80;73.20;;;;;;5014611;28;20034;-83
2022/03/09 02:42:42;;;;;;;6.70;5.03;;;5.80;73.20;;;;;;4998471;28;20033;-83
2022/03/09 02:45:08;;;;;;;7.13;5.00;;;5.70;73.10;;;;;;5025790;28;20026;-83
2022/03/09 02:47:37;;;;;;;8.35;5.35;;;5.70;73.20;;;;;;4998843;28;20034;-83
2022/03/09 02:50:04;;;;;;;7.45;5.15;;;5.70;73.20;;;;;;4985206;28;20049;-83
2022/03/09 02:52:29;;;;;;;7.00;5.25;;;5.60;73.10;;;;;;5016271;28;20022;-83
2022/03/09 02:54:55;;;;;;;8.20;5.43;;;5.60;73.10;;;;;;4998385;28;20029;-83
2022/03/09 02:57:21;;;;;;;7.47;4.93;;;5.60;73.10;;;;;;4980373;28;20494;-83
2022/03/09 02:59:49;;;;;;;7.00;5.22;;;5.60;73.10;;;;;;5000765;28;20060;-83
2022/03/09 03:02:15;;;;;;;7.45;4.80;;;5.60;73.10;;;;;;5014625;28;20021;-83
2022/03/09 03:04:40;;;;;;;7.68;5.70;;;5.60;73.10;;;;;;4999029;28;20373;-83
2022/03/09 03:07:06;;;;;;;6.65;4.93;;;5.50;73.10;;;;;;4996075;28;20096;-83
2022/03/09 03:09:32;;;;;;;7.28;5.10;;;5.50;73.10;;;;;;4984301;28;20625;-83
2022/03/09 03:11:57;;;;;;;7.30;5.35;;;5.50;73.10;;;;;;5005640;28;20171;-83
2022/03/09 03:14:23;;;;;;;7.30;5.32;;;5.50;73.10;;;;;;5009191;28;20402;-83
2022/03/09 03:16:49;;;;;;;6.82;5.25;;;5.40;73.10;;;;;;4991526;28;20574;-83
2022/03/09 03:19:15;;;;;;;7.35;4.97;;;5.40;73.10;;;;;;4983484;28;20038;-83
2022/03/09 03:21:40;;;;;;;6.75;4.68;;;5.40;73.10;;;;;;5001984;28;20502;-83
2022/03/09 03:24:06;;;;;;;6.88;4.93;;;5.40;73.10;;;;;;4998379;28;20037;-84
2022/03/09 03:26:32;;;;;;;7.40;5.10;;;5.40;73.10;;;;;;4982146;28;20025;-85
2022/03/09 03:28:58;;;;;;;7.35;5.10;;;5.30;73.00;;;;;;5014934;28;20424;-83
2022/03/09 03:31:24;;;;;;;6.45;4.82;;;5.30;73.10;;;;;;5014396;28;20496;-83
2022/03/09 03:33:50;;;;;;;7.57;5.20;;;5.30;73.10;;;;;;4998562;28;20044;-83
2022/03/09 03:36:17;;;;;;;7.22;5.30;;;5.20;73.00;;;;;;5014197;28;20412;-84
2022/03/09 03:38:43;;;;;;;7.35;5.38;;;5.20;73.00;;;;;;5014208;28;20017;-82
2022/03/09 03:41:09;;;;;;;7.20;5.07;;;5.20;73.00;;;;;;5013806;28;20407;-83
2022/03/09 03:43:34;;;;;;;8.45;5.75;;;5.20;73.00;;;;;;4994636;28;20040;-83
2022/03/09 03:46:01;;;;;;;7.00;5.07;;;5.20;73.00;;;;;;5001019;28;20056;-83
2022/03/09 03:48:26;;;;;;;7.80;5.20;;;5.20;73.10;;;;;;5015064;28;20101;-83
2022/03/09 03:50:52;;;;;;;7.45;5.20;;;5.10;73.00;;;;;;4994525;28;20141;-83
2022/03/09 03:53:18;;;;;;;7.25;5.28;;;5.10;73.00;;;;;;4981319;28;20045;-82
2022/03/09 03:55:44;;;;;;;6.90;4.93;;;5.10;73.00;;;;;;5030003;28;20033;-82
2022/03/09 03:58:11;;;;;;;7.78;5.30;;;5.10;73.00;;;;;;5015226;28;20079;-81
2022/03/09 04:00:37;;;;;;;7.32;5.50;;;5.00;73.00;;;;;;5030737;28;20104;-82
2022/03/09 04:03:03;;;;;;;7.63;5.47;;;5.00;73.00;;;;;;5001826;28;20049;-82
2022/03/09 04:05:29;;;;;;;7.25;5.10;;;5.00;73.60;;;;;;4984718;28;20117;-82
2022/03/09 04:07:55;;;;;;;7.68;5.32;;;5.00;73.00;;;;;;4993288;28;20409;-82
2022/03/09 04:10:22;;;;;;;7.50;5.13;;;4.90;73.00;;;;;;4999521;28;20715;-82
2022/03/09 04:12:48;;;;;;;7.38;5.35;;;4.90;73.00;;;;;;5000981;28;20030;-82
2022/03/09 04:15:14;;;;;;;8.02;5.18;;;4.90;73.00;;;;;;4998463;28;20026;-81
2022/03/09 04:17:44;;;;;;;6.70;4.95;;;4.90;73.00;;;;;;5010213;28;20041;-82
2022/03/09 04:20:12;;;;;;;6.90;4.93;;;4.90;73.00;;;;;;5001528;28;20051;-82
2022/03/09 04:22:39;;;;;;;6.97;5.20;;;4.80;73.00;;;;;;4981338;28;20065;-81
2022/03/09 04:25:06;;;;;;;7.07;4.78;;;4.80;73.00;;;;;;5010320;28;20030;-82
2022/03/09 04:27:32;;;;;;;7.18;5.43;;;4.80;73.00;;;;;;4968998;28;20035;-81
2022/03/09 04:29:57;;;;;;;7.15;5.25;;;4.80;73.00;;;;;;4994445;28;20497;-82
2022/03/09 04:32:25;;;;;;;6.60;5.15;;;4.70;73.00;;;;;;4977902;28;20035;-83
2022/03/09 04:34:51;;;;;;;7.50;5.43;;;4.70;73.00;;;;;;4999867;28;20030;-82
2022/03/09 04:37:18;;;;;;;7.53;5.18;;;4.70;73.00;;;;;;4992469;28;20034;-82
2022/03/09 04:39:44;;;;;;;8.38;5.30;;;4.70;73.00;;;;;;4965259;28;20123;-82
2022/03/09 04:42:09;;;;;;;6.90;5.03;;;4.60;72.90;;;;;;5013004;28;20030;-82
2022/03/09 04:44:35;;;;;;;7.00;5.47;;;4.60;73.00;;;;;;4982469;28;20026;-81
2022/03/09 04:47:01;;;;;;;8.82;5.97;;;4.60;73.00;;;;;;4978851;28;20100;-81
2022/03/09 04:49:27;;;;;;;8.07;5.70;;;4.60;73.00;;;;;;4964208;28;20106;-82
2022/03/09 04:51:52;;;;;;;7.13;5.13;;;4.60;73.00;;;;;;5005688;28;20030;-81
2022/03/09 04:54:18;;;;;;;7.97;5.47;;;4.60;73.00;;;;;;4978407;28;20042;-82
2022/03/09 04:56:44;;;;;;;7.43;5.30;;;4.50;73.00;;;;;;4993999;28;20480;-82
2022/03/09 04:59:10;;;;;;;7.18;5.32;;;4.50;73.00;;;;;;4992903;28;20117;-82
2022/03/09 05:01:36;;;;;;;7.32;4.65;;;4.50;73.10;;;;;;4991834;28;20030;-81
2022/03/09 05:04:01;;;;;;;6.97;4.97;;;4.50;73.10;;;;;;4975850;28;20040;-82
2022/03/09 05:06:27;;;;;;;7.93;5.25;;;4.50;73.10;;;;;;4975873;28;20043;-82
2022/03/09 05:08:53;;;;;;;7.28;5.03;;;4.50;73.10;;;;;;5001025;28;20062;-82
2022/03/09 05:11:18;;;;;;;7.40;5.18;;;4.40;73.10;;;;;;4984621;28;20494;-81
2022/03/09 05:13:44;;;;;;;7.50;5.03;;;4.40;73.00;;;;;;4969821;28;20033;-83
2022/03/09 05:16:10;;;;;;;8.15;5.35;;;4.40;73.10;;;;;;4987981;28;20057;-82
2022/03/09 05:18:40;;;;;;;7.60;5.40;;;4.40;73.10;;;;;;5006911;28;20033;-82
2022/03/09 05:21:07;;;;;;;7.82;5.22;;;4.40;73.10;;;;;;4989092;28;20050;-82
2022/03/09 05:23:34;;;;;;;7.28;5.40;;;4.40;73.10;;;;;;4973419;28;20141;-82
2022/03/09 05:25:59;;;;;;;7.72;4.90;;;4.40;73.10;;;;;;4990662;28;20029;-82
2022/03/09 05:28:25;;;;;;;8.00;5.68;;;4.40;73.20;;;;;;4987041;28;20027;-82
2022/03/09 05:30:51;;;;;;;7.47;5.07;;;4.30;73.10;;;;;;4973695;28;20030;-82
2022/03/09 05:33:17;;;;;;;6.80;5.13;;;4.30;73.10;;;;;;4974319;28;20067;-82
2022/03/09 05:35:44;;;;;;;7.65;5.22;;;4.30;73.10;;;;;;4940403;28;20062;-82
2022/03/09 05:38:10;;;;;;;6.95;5.15;;;4.30;73.20;;;;;;4991304;28;20034;-82
2022/03/09 05:40:35;;;;;;;7.55;5.35;;;4.30;73.20;;;;;;4973621;28;20026;-80
2022/03/09 05:43:01;;;;;;;7.75;5.55;;;4.20;73.20;;;;;;5005808;28;20088;-79
2022/03/09 05:45:27;;;;;;;7.78;5.20;;;4.20;73.10;;;;;;4986445;28;20057;-79
2022/03/09 05:47:53;;;;;;;7.90;5.47;;;4.20;73.10;;;;;;4986809;28;20176;-80
2022/03/09 05:50:19;;;;;;;6.65;5.03;;;4.20;73.20;;;;;;4956922;28;20129;-80
2022/03/09 05:52:45;;;;;;;6.68;4.90;;;4.20;73.20;;;;;;4972521;28;20030;-80
2022/03/09 05:55:11;;;;;;;7.93;5.90;;;4.20;73.10;;;;;;4973208;28;20071;-80
2022/03/09 05:57:37;;;;;;;6.60;4.95;;;4.10;73.10;;;;;;4956203;28;20049;-78
2022/03/09 06:00:03;;;;;;;7.05;5.30;;;4.10;73.10;;;;;;4970567;28;20129;-79
2022/03/09 06:02:37;;;;;;;6.50;5.28;;;4.10;73.10;;;;;;4989019;28;20041;-80
2022/03/09 06:05:03;;;;;;;7.38;5.20;;;4.10;73.10;;;;;;4987943;28;20030;-80
2022/03/09 06:07:31;;;;;;;6.88;5.35;;;4.10;73.10;;;;;;4957322;28;20031;-80
2022/03/09 06:09:58;;;;;;;8.60;5.97;;;4.10;73.20;;;;;;4973683;28;20038;-80
2022/03/09 06:12:23;;;;;;;8.77;6.07;;;4.10;73.20;;;;;;4972819;28;20118;-79
2022/03/09 06:14:50;;;;;;;8.00;5.78;;;4.10;73.30;;;;;;4969982;28;20061;-81
2022/03/09 06:17:15;;;;;;;7.55;5.88;;;4.00;73.20;;;;;;4989477;28;20061;-79
2022/03/09 06:19:42;;;;;;;7.45;5.32;;;4.00;73.20;;;;;;4974063;28;20027;-81
2022/03/09 06:22:08;;;;;;;7.25;5.05;;;4.00;73.20;;;;;;4955963;28;20043;-79
2022/03/09 06:24:34;;;;;;;7.32;5.55;;;4.00;73.30;;;;;;4984270;28;20038;-82
2022/03/09 06:26:59;;;;;;;8.25;5.78;;;4.00;73.20;;;;;;4987715;28;20053;-78
2022/03/09 06:29:25;;;;;;;7.22;5.43;;;4.00;73.20;;;;;;4963893;28;20039;-79
2022/03/09 06:31:51;;;;;;;7.40;5.13;;;3.90;73.20;;;;;;4974610;28;20038;-79
2022/03/09 06:34:17;;;;;;;8.15;5.28;;;3.90;73.20;;;;;;4969457;28;20035;-79
2022/03/09 06:36:44;;;;;;;6.65;4.88;;;3.90;73.20;;;;;;4988097;28;20026;-78
2022/03/09 06:39:15;;;;;;;7.68;5.18;;;3.90;73.20;;;;;;4988407;28;20521;-78
2022/03/09 06:41:43;;;;;;;6.55;5.03;;;3.90;73.20;;;;;;4989950;28;20018;-80
2022/03/09 06:44:10;;;;;;;6.55;5.10;;;3.90;73.30;;;;;;4968604;28;20023;-78
2022/03/09 06:46:36;;;;;;;8.05;5.43;;;3.90;73.30;;;;;;4968166;28;20483;-78
2022/03/09 06:49:02;;;;;;;7.38;5.30;;;3.90;73.30;;;;;;4956160;28;20094;-78
2022/03/09 06:51:28;;;;;;;7.93;5.55;;;3.90;73.30;;;;;;4973464;28;20084;-78
2022/03/09 06:53:54;;;;;;;7.38;5.15;;;3.80;73.20;;;;;;4973536;28;20472;-78
2022/03/09 06:56:20;;;;;;;7.32;5.30;;;3.80;73.30;;;;;;4973747;28;20037;-77
2022/03/09 06:58:46;;;;;;;7.47;5.53;;;3.80;73.30;;;;;;4989898;28;20037;-79
2022/03/09 07:01:12;;;;;;;6.57;5.10;;;3.80;73.30;;;;;;4990734;28;20037;-78
2022/03/09 07:03:38;;;;;;;7.75;5.80;;;3.80;73.30;;;;;;4955266;28;20499;-78
2022/03/09 07:06:03;;;;;;;7.30;5.45;;;3.80;73.40;;;;;;4972093;28;20081;-77
2022/03/09 07:08:30;;;;;;;7.55;5.10;;;3.80;73.40;;;;;;4989568;28;20035;-79
2022/03/09 07:10:56;;;;;;;7.35;5.15;;;3.80;73.40;;;;;;4989533;28;20031;-78
2022/03/09 07:13:21;;;;;;;6.82;5.10;;;3.80;73.50;;;;;;4971325;28;20038;-79
2022/03/09 07:15:47;;;;;;;7.43;5.38;;;3.80;73.50;;;;;;4990052;28;20494;-79
2022/03/09 07:18:13;;;;;;;7.55;5.10;;;3.80;73.40;;;;;;4993119;28;20128;-79
2022/03/09 07:20:40;;;;;;;7.20;5.15;;;3.80;73.50;;;;;;4994814;28;20062;-79
2022/03/09 07:23:06;;;;;;;7.07;5.60;;;3.70;73.50;;;;;;5034363;28;20042;-79
2022/03/09 07:25:34;;;;;;;6.80;5.35;;;3.80;73.50;;;;;;4983964;28;20037;-79
2022/03/09 07:28:00;;;;;;;8.35;5.00;;;3.80;73.60;;;;;;5016509;28;20029;-79
2022/03/09 07:30:26;;;;;;;7.28;5.03;;;3.70;73.50;;;;;;5016129;28;20038;-79
2022/03/09 07:32:52;;;;;;;7.32;5.90;;;3.70;73.60;;;;;;5007691;28;20041;-78
2022/03/09 07:35:17;;;;;;;7.47;5.57;;;3.70;73.60;;;;;;4997021;28;20144;-78
2022/03/09 07:37:44;;;;;;;7.95;5.88;;;3.80;73.60;;;;;;4994468;28;20030;-78
2022/03/09 07:40:10;;;;;;;7.75;5.32;;;3.70;73.60;;;;;;4983638;28;20030;-78
2022/03/09 07:42:36;;;;;;;6.97;4.85;;;3.80;73.70;;;;;;4999912;28;20525;-79
2022/03/09 07:45:05;;;;;;;7.22;5.07;;;3.70;73.60;;;;;;4983905;28;20038;-79
2022/03/09 07:47:32;;;;;;;7.60;5.50;;;3.70;73.60;;;;;;4999507;28;20021;-78
2022/03/09 07:49:58;;;;;;;7.00;5.20;;;3.80;73.70;;;;;;4996919;28;20034;-79
2022/03/09 07:52:24;;;;;;;8.20;5.50;;;3.80;73.70;;;;;;5014209;28;20068;-78
2022/03/09 07:54:50;;;;;;;7.25;5.35;;;3.80;73.80;;;;;;4995994;28;20730;-79
2022/03/09 07:57:16;;;;;;;7.38;4.95;;;3.80;73.70;;;;;;5016453;28;20037;-79
2022/03/09 07:59:41;;;;;;;7.43;5.55;;;3.80;73.70;;;;;;4996562;28;20056;-78
2022/03/09 08:02:07;;;;;;;8.48;5.05;;;3.80;73.70;;;;;;5021535;28;20025;-78
2022/03/09 08:04:34;;;;;;;6.60;4.43;;;3.80;73.80;;;;;;4995869;28;20125;-76
2022/03/09 08:07:00;;;;;;;7.40;4.88;;;3.80;73.80;;;;;;4983344;28;20006;-77
2022/03/09 08:09:26;;;;;;;7.38;5.55;;;3.80;73.80;;;;;;5015904;28;20083;-79
2022/03/09 08:11:52;;;;;;;7.10;4.55;;;3.80;73.80;;;;;;5015912;28;20124;-78
2022/03/09 08:14:18;;;;;;;7.20;5.15;;;3.80;73.80;;;;;;5033497;28;20425;-78
2022/03/09 08:16:44;;;;;;;8.00;5.40;;;3.80;73.80;;;;;;4988753;28;20030;-79
2022/03/09 08:19:10;;;;;;;6.93;5.00;;;3.80;73.80;;;;;;5016177;28;20034;-79
2022/03/09 08:21:36;;;;;;;6.97;5.05;;;3.80;73.80;;;;;;5005548;28;20093;-80
2022/03/09 08:24:02;;;;;;;7.38;5.20;;;3.90;73.90;;;;;;4993737;28;20022;-80
2022/03/09 08:26:27;;;;;;;7.35;5.35;;;3.90;73.90;;;;;;4977823;28;20105;-80
2022/03/09 08:28:54;;;;;;;7.22;5.63;;;3.90;73.90;;;;;;4993806;28;20040;-79
2022/03/09 08:31:20;;;;;;;7.93;5.05;;;3.90;73.90;;;;;;4975572;28;20030;-79
2022/03/09 08:33:45;;;;;;;8.00;5.85;;;3.90;73.90;;;;;;4986274;28;20039;-79
2022/03/09 08:36:11;;;;;;;8.57;5.30;;;3.90;73.90;;;;;;4965346;28;20027;-79
2022/03/09 08:38:39;;;;;;;7.80;5.70;;;3.90;73.90;;;;;;4970175;28;20085;-81
2022/03/09 08:41:05;;;;;;;7.45;5.20;;;3.90;73.90;;;;;;4992397;28;20022;-80
2022/03/09 08:43:31;;;;;;;6.72;5.10;;;4.00;74.00;;;;;;4992287;28;20483;-80
2022/03/09 08:45:56;;;;;;;7.10;5.32;;;4.00;74.00;;;;;;4975153;28;20057;-80
2022/03/09 08:48:26;;;;;;;6.63;5.47;;;4.00;74.00;;;;;;4977143;28;20058;-80
2022/03/09 08:50:55;;;;;;;7.68;5.75;;;4.00;74.10;;;;;;4975719;28;20034;-80
2022/03/09 08:53:21;;;;;;;8.05;5.68;;;4.00;74.00;;;;;;4984079;28;20035;-80
2022/03/09 08:55:47;;;;;;;7.60;5.28;;;4.10;74.10;;;;;;4972387;28;20031;-80
2022/03/09 08:58:14;;;;;;;7.70;5.75;;;4.10;74.10;;;;;;4956670;28;20039;-80
2022/03/09 09:00:39;;;;;;;7.30;5.20;;;4.10;74.10;;;;;;4975840;28;20025;-80
2022/03/09 09:03:05;;;;;;;7.60;5.65;;;4.10;74.10;;;;;;4973194;28;20047;-80
2022/03/09 09:05:31;;;;;;;7.75;5.78;;;4.10;74.10;;;;;;4991839;28;20022;-80
2022/03/09 09:07:57;;;;;;;7.43;4.95;;;4.10;74.10;;;;;;4992488;28;20041;-80
2022/03/09 09:10:23;;;;;;;7.20;5.30;;;4.20;74.10;;;;;;4974059;28;20037;-80
2022/03/09 09:12:50;;;;;;;7.63;5.57;;;4.20;74.10;;;;;;4976023;28;20038;-80
2022/03/09 09:15:16;;;;;;;6.82;5.28;;;4.30;74.20;;;;;;4975761;28;20482;-80
2022/03/09 09:17:42;;;;;;;7.80;5.38;;;4.30;74.10;;;;;;4975985;28;20030;-80
2022/03/09 09:20:09;;;;;;;7.63;5.47;;;4.40;74.20;;;;;;4991105;28;20023;-79
2022/03/09 09:22:35;;;;;;;7.47;5.40;;;4.40;74.20;;;;;;4998575;28;20133;-82
2022/03/09 09:25:02;;;;;;;7.03;5.05;;;4.40;74.20;;;;;;5004283;28;20026;-81
2022/03/09 09:27:28;;;;;;;7.05;5.05;;;4.50;74.20;;;;;;4976808;28;20045;-82
2022/03/09 09:29:54;;;;;;;8.25;5.90;;;4.60;74.20;;;;;;4979145;28;20042;-79
2022/03/09 09:32:20;;;;;;;7.20;4.88;;;4.60;74.20;;;;;;4981782;28;20034;-82
2022/03/09 09:34:45;;;;;;;7.22;5.32;;;4.70;74.10;;;;;;4977163;28;20531;-79
2022/03/09 09:37:11;;;;;;;6.82;4.97;;;4.70;74.10;;;;;;4963127;28;20034;-80
2022/03/09 09:39:37;;;;;;;6.63;5.38;;;4.80;74.10;;;;;;4987211;28;20030;-81
2022/03/09 09:42:03;;;;;;;7.07;5.45;;;4.90;74.20;;;;;;4992746;28;20052;-81
2022/03/09 09:44:30;;;;;;;6.70;5.28;;;5.00;74.20;;;;;;4984375;28;20026;-81
2022/03/09 09:46:56;;;;;;;7.28;5.32;;;5.00;74.10;;;;;;4984910;28;20356;-81
2022/03/09 09:49:24;;;;;;;6.85;5.38;;;5.10;74.10;;;;;;4980603;28;20121;-80
2022/03/09 09:51:51;;;;;;;7.60;5.30;;;5.20;74.20;;;;;;4972438;28;20030;-81
2022/03/09 09:54:18;;;;;;;7.32;5.13;;;5.20;74.10;;;;;;4986122;28;20026;-80
2022/03/09 09:56:44;;;;;;;6.90;5.45;;;5.30;74.10;;;;;;4989234;28;20503;-80
2022/03/09 09:59:11;;;;;;;7.78;5.60;;;5.40;74.10;;;;;;4991011;28;20462;-79
2022/03/09 10:01:38;;;;;;;6.57;4.88;;;5.50;74.10;;;;;;4998322;28;20029;-80
2022/03/09 10:04:06;;;;;;;6.80;5.30;;;5.60;74.10;;;;;;4978325;28;20136;-81
2022/03/09 10:06:32;;;;;;;6.78;5.38;;;5.60;74.00;;;;;;4969919;28;20036;-81
2022/03/09 10:09:00;;;;;;;7.32;5.38;;;5.70;74.00;;;;;;4969907;28;20466;-80
2022/03/09 10:11:52;;;;;;;8.57;5.65;;;5.80;74.10;;;;;;4998743;28;20070;-80
2022/03/09 10:14:44;;;;;;;7.63;5.63;;;5.90;74.20;;;;;;4992691;28;20034;-81
2022/03/09 10:17:13;;;;;;;7.40;5.40;;;6.00;74.10;;;;;;4996964;28;20119;-81
2022/03/09 10:19:42;;;;;;;7.15;5.32;;;6.10;74.10;;;;;;4993304;28;20341;-77
2022/03/09 10:22:25;;;;;;;6.85;5.30;;;6.20;74.10;;;;;;5011403;28;20667;-78
2022/03/09 10:24:54;;;;;;;7.95;5.70;;;6.30;74.30;;;;;;5005025;28;20076;-77
2022/03/09 10:27:35;;;;;;;7.60;5.60;;;6.40;74.20;;;;;;5030464;28;20068;-76
2022/03/09 10:30:07;;;;;;;7.00;5.57;;;6.50;74.40;;;;;;5005321;28;20102;-76
2022/03/09 10:32:52;;;;;;;8.23;5.78;;;6.60;74.30;;;;;;5012698;28;20029;-78
2022/03/09 10:35:27;;;;;;;7.10;5.65;;;6.70;74.40;;;;;;5007964;28;20039;-78
2022/03/09 10:37:52;;;;;;;;;;;6.80;74.20;;;;;;5013641;28;20040;-78
2022/03/09 10:40:20;;;;;;;8.35;5.28;;;6.90;74.20;;;;;;4996555;28;20362;-77
2022/03/09 10:42:48;;;;;;;7.30;5.28;;;7.00;74.10;;;;;;5030627;28;20033;-78
2022/03/09 10:45:17;;;;;;;7.03;5.35;;;7.10;74.30;;;;;;5004796;28;20025;-78
2022/03/09 10:47:48;;;;;;;7.65;5.82;;;7.20;74.30;;;;;;5006237;28;20033;-78
2022/03/09 10:50:17;;;;;;;7.70;5.88;;;7.30;74.40;;;;;;5029904;28;20037;-77
2022/03/09 10:52:47;;;;;;;7.57;5.75;;;7.40;74.30;;;;;;5011686;28;20047;-78
2022/03/09 10:55:32;;;;;;;7.28;5.32;;;7.50;74.30;;;;;;4996580;28;20110;-76
2022/03/09 10:58:20;;;;;;;8.43;6.07;;;7.70;74.50;;;;;;5020779;28;20045;-77
2022/03/09 11:00:55;;;;;;;7.65;5.72;;;7.80;74.50;;;;;;5006994;28;20041;-78
2022/03/09 11:03:33;;;;;;;7.60;6.20;;;7.90;74.50;;;;;;5013468;28;20037;-79
2022/03/09 11:06:02;;;;;;;8.43;6.03;;;8.00;74.40;;;;;;4995931;28;20038;-79
2022/03/09 11:08:30;;;;;;;7.22;5.72;;;8.10;74.50;;;;;;5013128;28;20067;-79
2022/03/09 11:10:59;;;;;;;7.35;5.72;;;8.20;74.40;;;;;;5013163;28;20030;-80
2022/03/09 11:13:27;;;;;;;8.85;6.10;;;8.30;74.50;;;;;;4997604;28;20040;-80
2022/03/09 11:15:54;;;;;;;7.85;5.45;;;8.40;74.50;;;;;;4995651;28;20039;-80
2022/03/09 11:18:25;;;;;;;8.73;5.93;;;8.50;74.50;;;;;;5013017;28;20038;-80
2022/03/09 11:20:57;;;;;;;8.35;5.90;;;8.60;74.60;;;;;;5013481;28;20030;-81
2022/03/09 11:23:24;;;;;;;7.72;5.93;;;8.70;74.60;;;;;;5009643;28;20056;-80
2022/03/09 11:25:57;;;;;;;7.53;5.90;;;8.80;74.60;;;;;;5013085;28;20037;-80
2022/03/09 11:28:41;;;;;;;8.30;6.43;;;8.90;74.70;;;;;;5013388;28;20029;-80
2022/03/09 11:31:15;;;;;;;9.52;6.43;;;9.00;74.80;;;;;;5023453;28;20060;-80
2022/03/09 11:33:49;;;;;;;8.07;6.30;;;9.10;74.80;;;;;;4996644;28;20347;-80
2022/03/09 11:36:21;;;;;;;7.97;6.10;;;9.20;74.90;;;;;;5013438;28;20029;-80
2022/03/09 11:38:54;;;;;;;8.70;6.40;;;9.30;74.90;;;;;;5012677;28;20074;-79
2022/03/09 11:41:24;;;;;;;8.35;6.18;;;9.30;74.90;;;;;;4965389;28;20033;-80
2022/03/09 11:44:14;;;;;;;8.75;6.28;;;9.40;75.00;;;;;;5030453;28;20030;-80
2022/03/09 11:46:58;;;;;;;9.13;6.68;;;9.50;75.10;;;;;;4996460;28;20041;-81
2022/03/09 11:49:50;;;;;;;8.77;6.75;;;9.60;75.30;;;;;;4991330;28;20378;-80
2022/03/09 11:52:19;;;;;;;9.02;6.65;;;9.60;75.30;;;;;;5032664;28;20041;-79
2022/03/09 11:55:02;;;;;;;8.18;6.38;;;9.70;75.20;;;;;;5030162;28;20068;-79
2022/03/09 11:57:49;;;;;;;9.95;7.28;;;9.70;75.40;;;;;;4999153;28;20049;-80
2022/03/09 12:00:19;;;;;;;8.70;6.72;;;9.80;75.40;;;;;;4995289;28;20017;-80
2022/03/09 12:02:55;;;;;;;8.50;6.72;;;9.90;75.40;;;;;;4977068;28;20022;-80
2022/03/09 12:05:41;;;;;;;9.18;6.55;;;10.00;75.50;;;;;;5006590;28;20021;-81
2022/03/09 12:08:11;;;;;;;8.82;6.10;;;10.00;75.60;;;;;;5000194;28;20025;-79
2022/03/09 12:10:46;;;;;;;8.43;6.90;;;10.10;75.60;;;;;;4999928;28;20429;-80
2022/03/09 12:13:11;;;;;;;9.70;7.30;;;10.20;75.80;;;;;;5001177;28;20026;-80
2022/03/09 12:16:06;;;;;;;8.98;6.72;;;10.20;75.70;;;;;;5015170;28;20033;-80
2022/03/09 12:18:44;;;;;;;10.77;7.40;;;10.30;75.90;;;;;;5014008;28;20029;-79
2022/03/09 12:21:13;;;;;;;11.18;7.10;;;10.40;75.80;;;;;;5015748;28;20025;-80
2022/03/09 12:24:00;;;;;;;9.95;7.25;;;10.40;75.80;;;;;;5013936;28;20458;-80
2022/03/09 12:26:50;;;;;;;9.30;6.82;;;10.50;76.00;;;;;;5007581;28;20525;-79
2022/03/09 12:29:24;;;;;;;10.05;7.25;;;10.60;76.00;;;;;;5003797;28;20041;-79
2022/03/09 12:32:02;;;;;;;10.02;7.03;;;10.60;75.80;;;;;;5031168;28;20041;-80
2022/03/09 12:34:52;;;;;;;10.57;7.43;;;10.70;75.90;;;;;;5033150;28;20034;-80
2022/03/09 12:37:24;;;;;;;9.27;6.97;;;10.80;76.00;;;;;;5009596;28;20052;-79
2022/03/09 12:39:53;;;;;;;9.75;7.65;;;10.90;76.00;;;;;;4998129;28;20531;-79
2022/03/09 12:42:19;;;;;;;9.63;7.90;;;10.90;75.90;;;;;;5015108;28;20488;-79
2022/03/09 12:44:46;;;;;;;11.38;7.70;;;10.90;75.80;;;;;;5015029;28;20029;-80
2022/03/09 12:47:11;;;;;;;9.65;7.45;;;11.00;75.90;;;;;;4998696;28;20022;-80
2022/03/09 12:49:39;;;;;;;10.18;7.88;;;11.10;75.90;;;;;;4991821;28;20044;-79
2022/03/09 12:52:17;;;;;;;12.05;8.23;;;11.10;75.90;;;;;;5016054;28;20405;-80
2022/03/09 12:54:46;;;;;;;10.23;7.70;;;11.20;75.90;;;;;;5034377;28;20033;-79
2022/03/09 12:57:17;;;;;;;10.27;7.40;;;11.30;75.90;;;;;;5015441;28;20041;-80
2022/03/09 12:59:59;;;;;;;9.80;7.32;;;11.30;75.90;;;;;;5014817;28;20052;-79